Time;durP1;ratioP1;P1;durP2;ratioP2;P2;SDS_P1;SDS_P2;PMS_P1;PMS_P2;Temp;Humidity;BMP_temperature;BMP_pressure;BME280_temperature;BME280_humidity;BME280_pressure;Samples;Min_cycle;Max_cycle;Signal;HPM_P1;HPM_P2
2023/08/23 00:01:58;;;;;;;6.05;2.47;;;22.90;99.90;;;;;;4992938;28;20022;-56
2023/08/23 00:04:23;;;;;;;4.63;2.55;;;22.80;99.90;;;;;;4993689;28;20034;-49
2023/08/23 00:06:49;;;;;;;3.92;2.60;;;22.80;99.90;;;;;;4989213;28;20049;-55
2023/08/23 00:09:16;;;;;;;4.53;2.38;;;22.80;99.90;;;;;;4993746;28;20030;-58
2023/08/23 00:11:43;;;;;;;6.10;2.70;;;22.70;99.90;;;;;;4990081;28;20036;-58
2023/08/23 00:14:09;;;;;;;5.80;2.88;;;22.70;99.90;;;;;;4992550;28;20117;-56
2023/08/23 00:16:34;;;;;;;2.75;2.15;;;22.80;99.90;;;;;;4993046;28;20126;-54
2023/08/23 00:19:00;;;;;;;8.70;3.00;;;22.80;99.90;;;;;;4993656;28;20406;-57
2023/08/23 00:21:27;;;;;;;6.22;2.70;;;22.80;99.90;;;;;;4990746;28;20026;-58
2023/08/23 00:23:54;;;;;;;5.97;2.78;;;22.80;99.90;;;;;;4990342;28;20026;-58
2023/08/23 00:26:19;;;;;;;5.13;2.97;;;22.70;99.90;;;;;;4992739;28;20046;-56
2023/08/23 00:28:45;;;;;;;3.72;2.42;;;22.70;99.90;;;;;;4971995;28;20026;-56
2023/08/23 00:31:11;;;;;;;5.70;2.67;;;22.80;99.90;;;;;;4992529;28;20113;-54
2023/08/23 00:33:37;;;;;;;5.20;3.47;;;22.80;99.90;;;;;;4987646;28;20038;-55
2023/08/23 00:36:03;;;;;;;5.35;2.80;;;22.80;99.90;;;;;;4993454;28;20153;-54
2023/08/23 00:38:29;;;;;;;4.80;2.75;;;22.80;99.90;;;;;;4983536;28;20039;-57
2023/08/23 00:40:54;;;;;;;3.55;2.53;;;22.80;99.90;;;;;;4990506;28;20034;-57
2023/08/23 00:43:20;;;;;;;8.63;2.47;;;22.90;99.90;;;;;;4990483;28;20666;-59
2023/08/23 00:45:46;;;;;;;6.00;3.03;;;22.90;99.90;;;;;;4988144;28;20030;-50
2023/08/23 00:48:13;;;;;;;5.53;2.88;;;22.80;99.90;;;;;;4991771;28;20038;-58
2023/08/23 00:50:41;;;;;;;5.28;2.88;;;22.80;99.90;;;;;;4987027;28;20033;-56
2023/08/23 00:53:08;;;;;;;6.13;2.88;;;22.70;99.90;;;;;;4991750;28;20486;-55
2023/08/23 00:55:37;;;;;;;4.63;3.05;;;22.60;99.90;;;;;;4986222;28;20042;-56
2023/08/23 00:58:04;;;;;;;5.97;2.78;;;22.60;99.90;;;;;;4992889;28;20438;-52
2023/08/23 01:00:33;;;;;;;9.43;3.08;;;22.50;99.90;;;;;;4992098;28;20065;-53
2023/08/23 01:03:00;;;;;;;4.65;2.85;;;22.60;99.90;;;;;;4992758;28;20034;-57
2023/08/23 01:06:30;;;;;;;10.10;3.10;;;22.80;99.90;;;;;;4990110;28;20112;-58
2023/08/23 01:09:23;;;;;;;7.88;3.13;;;22.90;99.90;;;;;;4961615;28;20038;-53
2023/08/23 01:12:22;;;;;;;6.78;2.75;;;22.90;99.90;;;;;;4997216;28;20050;-57
2023/08/23 01:15:14;;;;;;;4.18;2.58;;;22.90;99.90;;;;;;4994543;28;20030;-57
2023/08/23 01:17:42;;;;;;;3.90;2.28;;;22.90;99.90;;;;;;4972381;28;20038;-55
2023/08/23 01:20:13;;;;;;;5.22;2.58;;;23.00;99.90;;;;;;4987952;28;20516;-55
2023/08/23 01:22:44;;;;;;;;;;;23.20;99.90;;;;;;4991740;28;20034;-57
2023/08/23 01:25:10;;;;;;;4.03;2.72;;;23.30;99.90;;;;;;4990725;28;19963;-58
2023/08/23 01:27:35;;;;;;;4.93;3.17;;;23.30;99.90;;;;;;4992912;28;20487;-53
2023/08/23 01:30:02;;;;;;;4.50;2.63;;;23.20;99.90;;;;;;4985644;28;20030;-54
2023/08/23 01:32:37;;;;;;;12.75;3.20;;;23.20;99.90;;;;;;4991030;28;20018;-54
2023/08/23 01:35:17;;;;;;;4.10;3.30;;;23.10;99.90;;;;;;4984457;28;20117;-54
2023/08/23 01:37:50;;;;;;;4.28;2.72;;;22.90;99.90;;;;;;4983629;28;20043;-52
2023/08/23 01:40:17;;;;;;;5.80;2.83;;;22.80;99.90;;;;;;4987253;28;20034;-55
2023/08/23 01:42:44;;;;;;;7.70;2.97;;;22.70;99.90;;;;;;4991925;28;20049;-54
2023/08/23 01:45:10;;;;;;;5.57;2.97;;;22.70;99.90;;;;;;4990312;28;20041;-52
2023/08/23 01:47:36;;;;;;;4.47;2.60;;;22.60;99.90;;;;;;4992134;28;20038;-56
2023/08/23 01:50:03;;;;;;;6.72;3.20;;;22.40;99.90;;;;;;4985280;28;20034;-57
2023/08/23 01:52:29;;;;;;;5.88;3.05;;;22.40;99.90;;;;;;4990537;28;20030;-55
2023/08/23 01:54:55;;;;;;;6.75;3.40;;;22.30;99.90;;;;;;4990933;28;20092;-58
2023/08/23 01:57:20;;;;;;;4.95;3.20;;;22.20;99.90;;;;;;4991980;28;20045;-54
2023/08/23 01:59:47;;;;;;;7.13;3.00;;;22.00;99.90;;;;;;4990481;28;20180;-57
2023/08/23 02:02:14;;;;;;;9.48;3.05;;;21.90;99.90;;;;;;4991828;28;20121;-55
2023/08/23 02:04:40;;;;;;;5.50;3.83;;;21.80;99.90;;;;;;4983992;28;20559;-58
2023/08/23 02:07:06;;;;;;;5.00;3.08;;;21.70;99.90;;;;;;4991780;28;20042;-56
2023/08/23 02:09:33;;;;;;;6.97;4.05;;;21.70;99.90;;;;;;4984738;28;20034;-57
2023/08/23 02:11:59;;;;;;;13.48;3.28;;;21.60;99.90;;;;;;4991793;28;20034;-58
2023/08/23 02:14:25;;;;;;;5.35;3.33;;;21.60;99.90;;;;;;4992618;28;20037;-59
2023/08/23 02:16:50;;;;;;;6.00;3.28;;;21.60;99.90;;;;;;5002308;23;20046;-49
2023/08/23 02:19:16;;;;;;;6.55;3.60;;;21.50;99.90;;;;;;4990151;28;20034;-49
2023/08/23 02:21:42;;;;;;;4.90;3.53;;;21.40;99.90;;;;;;4990961;28;20117;-50
2023/08/23 02:24:08;;;;;;;6.60;3.33;;;21.50;99.90;;;;;;4991103;28;20100;-50
2023/08/23 02:26:37;;;;;;;8.43;3.85;;;21.40;99.90;;;;;;4982180;28;20093;-49
2023/08/23 02:29:03;;;;;;;9.05;4.47;;;21.40;99.90;;;;;;4971988;28;20031;-53
2023/08/23 02:31:30;;;;;;;7.13;3.53;;;21.30;99.90;;;;;;4970412;28;20030;-50
2023/08/23 02:33:56;;;;;;;4.78;3.33;;;21.30;99.90;;;;;;4971351;28;20031;-54
2023/08/23 02:36:21;;;;;;;9.07;3.60;;;21.30;99.90;;;;;;4969791;28;20142;-51
2023/08/23 02:38:47;;;;;;;5.28;3.67;;;21.20;99.90;;;;;;4972027;28;20033;-51
2023/08/23 02:41:13;;;;;;;5.53;3.30;;;21.30;99.90;;;;;;4969933;28;20031;-53
2023/08/23 02:43:39;;;;;;;5.85;3.40;;;21.20;99.90;;;;;;4971590;28;20672;-48
2023/08/23 02:46:04;;;;;;;6.95;3.67;;;21.20;99.90;;;;;;4969915;28;20476;-51
2023/08/23 02:48:30;;;;;;;4.72;3.28;;;21.20;99.90;;;;;;4971763;28;20484;-55
2023/08/23 02:50:56;;;;;;;6.75;3.80;;;21.10;99.90;;;;;;4970830;28;20034;-50
2023/08/23 02:53:22;;;;;;;6.68;3.92;;;21.10;99.90;;;;;;4969988;28;20034;-52
2023/08/23 02:55:48;;;;;;;12.18;4.28;;;21.10;99.90;;;;;;4970457;28;20411;-50
2023/08/23 02:58:14;;;;;;;6.55;4.13;;;21.10;99.90;;;;;;4970838;28;20038;-53
2023/08/23 03:00:39;;;;;;;7.97;4.60;;;21.10;99.90;;;;;;4971750;28;20030;-52
2023/08/23 03:03:05;;;;;;;7.50;4.60;;;21.00;99.90;;;;;;4970012;28;20038;-56
2023/08/23 03:05:31;;;;;;;10.95;4.63;;;20.90;99.90;;;;;;4971986;28;20066;-49
2023/08/23 03:07:57;;;;;;;6.55;3.70;;;20.90;99.90;;;;;;4969200;28;20088;-54
2023/08/23 03:10:23;;;;;;;6.60;4.28;;;21.00;99.90;;;;;;4971756;28;20035;-50
2023/08/23 03:12:48;;;;;;;7.63;3.63;;;21.00;99.90;;;;;;4969441;28;20185;-49
2023/08/23 03:15:14;;;;;;;6.40;3.75;;;21.00;99.90;;;;;;4973568;28;20031;-55
2023/08/23 03:17:40;;;;;;;9.23;4.63;;;20.90;99.90;;;;;;4969361;28;20046;-49
2023/08/23 03:20:07;;;;;;;6.90;4.07;;;20.90;99.90;;;;;;4972380;28;20066;-47
2023/08/23 03:22:33;;;;;;;8.23;4.15;;;20.90;99.90;;;;;;4973019;28;20042;-49
2023/08/23 03:24:58;;;;;;;7.97;4.47;;;20.90;99.90;;;;;;4972727;28;20038;-48
2023/08/23 03:27:25;;;;;;;10.95;4.80;;;20.90;99.90;;;;;;4974141;28;20499;-46
2023/08/23 03:29:51;;;;;;;6.80;4.35;;;20.90;99.90;;;;;;4971655;28;20031;-50
2023/08/23 03:32:17;;;;;;;7.20;4.88;;;20.80;99.90;;;;;;4975109;28;20106;-52
2023/08/23 03:34:43;;;;;;;10.82;4.57;;;20.90;99.90;;;;;;4973199;28;20039;-44
2023/08/23 03:37:09;;;;;;;7.47;4.80;;;20.80;99.90;;;;;;4973675;28;20462;-49
2023/08/23 03:39:35;;;;;;;9.20;6.03;;;20.70;99.90;;;;;;4966077;28;20077;-45
2023/08/23 03:42:01;;;;;;;7.70;4.80;;;20.70;99.90;;;;;;4987340;28;20041;-50
2023/08/23 03:44:26;;;;;;;8.15;5.10;;;20.70;99.90;;;;;;4973286;28;20114;-46
2023/08/23 03:46:52;;;;;;;6.85;4.18;;;20.60;99.90;;;;;;4974643;28;20022;-44
2023/08/23 03:49:18;;;;;;;7.72;4.22;;;20.70;99.90;;;;;;4973793;28;20031;-45
2023/08/23 03:51:43;;;;;;;10.88;4.60;;;20.70;99.90;;;;;;4974853;28;20046;-46
2023/08/23 03:54:09;;;;;;;8.95;4.05;;;20.60;99.90;;;;;;4972740;28;20109;-44
2023/08/23 03:56:35;;;;;;;13.93;5.72;;;20.60;99.90;;;;;;4974605;28;20085;-44
2023/08/23 03:59:00;;;;;;;7.70;4.35;;;20.60;99.90;;;;;;4959097;28;20598;-47
2023/08/23 04:01:26;;;;;;;9.80;4.55;;;20.70;99.90;;;;;;4956628;28;20054;-48
2023/08/23 04:03:52;;;;;;;7.70;4.82;;;20.60;99.90;;;;;;4963059;28;20034;-46
2023/08/23 04:06:18;;;;;;;6.88;4.35;;;20.60;99.90;;;;;;4974482;28;20031;-47
2023/08/23 04:08:43;;;;;;;8.32;4.78;;;20.50;99.90;;;;;;4973721;28;20034;-51
2023/08/23 04:11:09;;;;;;;8.93;4.93;;;20.60;99.90;;;;;;4972171;28;20070;-51
2023/08/23 04:13:35;;;;;;;7.53;4.82;;;20.50;99.90;;;;;;4971332;28;20356;-50
2023/08/23 04:16:00;;;;;;;7.70;4.25;;;20.50;99.90;;;;;;4972564;28;20142;-52
2023/08/23 04:18:26;;;;;;;11.55;5.13;;;20.50;99.90;;;;;;4974488;28;20027;-53
2023/08/23 04:21:02;;;;;;;9.60;5.18;;;20.50;99.90;;;;;;4973535;28;20035;-53
2023/08/23 04:23:28;;;;;;;6.47;4.13;;;20.40;99.90;;;;;;4967455;28;20027;-56
2023/08/23 04:25:54;;;;;;;8.75;4.93;;;20.40;99.90;;;;;;4970949;28;20099;-53
2023/08/23 04:28:20;;;;;;;8.07;4.88;;;20.40;99.90;;;;;;4966697;28;20031;-54
2023/08/23 04:30:45;;;;;;;7.43;4.75;;;20.40;99.90;;;;;;4974197;28;20403;-54
2023/08/23 04:33:11;;;;;;;7.97;4.65;;;20.40;99.90;;;;;;4963376;28;20396;-50
2023/08/23 04:35:37;;;;;;;7.55;4.50;;;20.40;99.90;;;;;;4968001;28;20038;-52
2023/08/23 04:38:09;;;;;;;8.32;4.88;;;20.30;99.90;;;;;;4955467;28;20034;-48
2023/08/23 04:40:36;;;;;;;8.32;4.55;;;20.30;99.90;;;;;;4951184;28;20129;-49
2023/08/23 04:43:02;;;;;;;16.77;7.22;;;20.30;99.90;;;;;;4967276;28;20023;-51
2023/08/23 04:45:27;;;;;;;8.00;4.43;;;20.30;99.90;;;;;;4959532;28;20082;-54
2023/08/23 04:47:54;;;;;;;12.50;5.18;;;20.40;99.90;;;;;;4968666;28;20505;-53
2023/08/23 04:50:20;;;;;;;10.63;5.13;;;20.40;99.90;;;;;;4971576;28;20499;-54
2023/08/23 04:52:45;;;;;;;7.43;4.50;;;20.40;99.90;;;;;;4964865;28;20050;-53
2023/08/23 04:55:11;;;;;;;9.20;4.60;;;20.30;99.90;;;;;;4976073;28;20022;-59
2023/08/23 04:57:37;;;;;;;9.88;4.95;;;20.30;99.90;;;;;;4973016;28;20035;-48
2023/08/23 05:00:07;;;;;;;7.03;4.95;;;20.30;99.90;;;;;;4973625;28;20037;-49
2023/08/23 05:02:32;;;;;;;7.82;5.45;;;20.30;99.90;;;;;;4966384;28;20134;-49
2023/08/23 05:04:58;;;;;;;9.32;4.78;;;20.40;99.90;;;;;;4973168;28;20133;-50
2023/08/23 05:07:24;;;;;;;6.20;4.18;;;20.40;99.90;;;;;;4966642;28;20046;-54
2023/08/23 05:09:49;;;;;;;9.45;5.28;;;20.40;99.90;;;;;;4973261;28;20035;-53
2023/08/23 05:12:15;;;;;;;10.13;5.40;;;20.40;99.90;;;;;;4966488;28;20034;-57
2023/08/23 05:14:41;;;;;;;8.80;4.75;;;20.40;99.90;;;;;;4973210;28;20085;-47
2023/08/23 05:17:07;;;;;;;14.43;4.97;;;20.40;99.90;;;;;;4965594;28;20121;-52
2023/08/23 05:19:32;;;;;;;12.65;5.07;;;20.50;99.90;;;;;;4966793;28;20106;-48
2023/08/23 05:21:58;;;;;;;11.27;5.30;;;20.50;99.90;;;;;;4970752;28;20117;-52
2023/08/23 05:24:24;;;;;;;7.80;5.22;;;20.50;99.90;;;;;;4972032;28;20476;-52
2023/08/23 05:26:50;;;;;;;10.70;4.90;;;20.50;99.90;;;;;;4969333;28;20057;-54
2023/08/23 05:29:16;;;;;;;8.70;4.90;;;20.40;99.90;;;;;;4972378;28;20065;-56
2023/08/23 05:31:41;;;;;;;6.35;4.43;;;20.40;99.90;;;;;;4967674;28;20392;-50
2023/08/23 05:34:07;;;;;;;8.70;5.05;;;20.40;99.90;;;;;;4970759;28;20039;-51
2023/08/23 05:36:33;;;;;;;7.78;4.90;;;20.50;99.90;;;;;;4965418;28;20050;-51
2023/08/23 05:39:03;;;;;;;9.48;5.05;;;20.60;99.90;;;;;;4963933;28;20121;-51
2023/08/23 05:41:29;;;;;;;20.15;5.38;;;20.60;99.90;;;;;;4962561;28;20547;-52
2023/08/23 05:43:55;;;;;;;7.75;4.40;;;20.60;99.90;;;;;;4966524;28;20166;-53
2023/08/23 05:46:21;;;;;;;11.10;6.25;;;20.70;99.90;;;;;;4972126;28;20088;-46
2023/08/23 05:48:48;;;;;;;8.60;5.22;;;20.80;99.90;;;;;;4970258;28;20031;-53
2023/08/23 05:51:14;;;;;;;11.00;5.00;;;21.00;99.90;;;;;;4971690;28;20031;-48
2023/08/23 05:53:39;;;;;;;7.65;5.22;;;21.00;99.90;;;;;;4970920;28;20081;-49
2023/08/23 05:56:06;;;;;;;7.32;4.95;;;21.10;99.90;;;;;;4970595;28;20117;-48
2023/08/23 05:58:31;;;;;;;6.95;4.13;;;21.20;99.90;;;;;;4970675;28;20121;-47
2023/08/23 06:00:57;;;;;;;6.65;4.35;;;21.50;99.90;;;;;;4965905;28;20043;-56
2023/08/23 06:03:23;;;;;;;9.15;4.55;;;21.60;99.90;;;;;;4961317;28;20031;-51
2023/08/23 06:05:56;;;;;;;9.40;4.68;;;21.70;99.90;;;;;;4969725;28;20033;-50
2023/08/23 06:08:22;;;;;;;12.05;5.50;;;21.80;99.90;;;;;;4965229;28;20502;-52
2023/08/23 06:10:49;;;;;;;10.20;4.75;;;21.80;99.90;;;;;;4959318;28;20046;-52
2023/08/23 06:13:15;;;;;;;9.02;5.00;;;21.80;99.90;;;;;;4970641;28;20031;-49
2023/08/23 06:15:41;;;;;;;8.43;4.40;;;21.70;99.90;;;;;;4970541;28;20507;-55
2023/08/23 06:18:07;;;;;;;15.95;4.80;;;21.60;99.90;;;;;;4967164;28;20070;-55
2023/08/23 06:20:33;;;;;;;6.55;4.28;;;21.70;99.90;;;;;;4949552;28;20407;-51
2023/08/23 06:22:58;;;;;;;9.73;4.95;;;21.70;99.90;;;;;;4968332;28;20089;-49
2023/08/23 06:25:25;;;;;;;6.57;3.95;;;21.80;99.90;;;;;;4963528;28;20367;-51
2023/08/23 06:27:51;;;;;;;6.57;4.15;;;21.70;99.90;;;;;;4980535;28;20057;-56
2023/08/23 06:30:17;;;;;;;9.18;4.00;;;21.80;99.90;;;;;;4966894;28;20514;-54
2023/08/23 06:32:47;;;;;;;7.60;4.20;;;21.90;99.90;;;;;;4962999;28;20023;-55
2023/08/23 06:35:17;;;;;;;6.70;3.73;;;21.90;99.90;;;;;;4954550;28;20395;-52
2023/08/23 06:37:43;;;;;;;6.93;3.65;;;22.10;99.90;;;;;;4968461;28;20464;-52
2023/08/23 06:40:14;;;;;;;5.82;3.65;;;22.20;99.90;;;;;;4967224;28;20045;-55
2023/08/23 06:42:40;;;;;;;7.38;3.15;;;22.40;99.90;;;;;;4971186;28;20023;-55
2023/08/23 06:45:06;;;;;;;8.77;3.13;;;22.70;99.90;;;;;;4969545;28;20034;-56
2023/08/23 06:47:33;;;;;;;7.05;3.85;;;22.70;99.90;;;;;;4971259;28;20042;-50
2023/08/23 06:49:59;;;;;;;5.85;3.08;;;22.80;99.90;;;;;;4968511;28;20024;-55
2023/08/23 06:52:25;;;;;;;6.47;3.95;;;22.70;99.90;;;;;;4971072;28;20086;-52
2023/08/23 06:54:51;;;;;;;8.57;3.70;;;22.50;99.90;;;;;;4969687;28;20042;-52
2023/08/23 06:57:16;;;;;;;5.05;3.72;;;22.40;99.90;;;;;;4971008;28;20033;-55
2023/08/23 06:59:42;;;;;;;7.20;2.72;;;22.30;99.90;;;;;;4970820;28;20141;-54
2023/08/23 07:02:10;;;;;;;4.25;3.03;;;22.30;99.90;;;;;;4972658;28;20026;-54
2023/08/23 07:04:36;;;;;;;7.60;3.20;;;22.30;99.90;;;;;;4970623;28;20033;-55
2023/08/23 07:07:02;;;;;;;7.47;3.33;;;22.50;99.90;;;;;;4968661;28;20451;-52
2023/08/23 07:09:28;;;;;;;5.50;3.15;;;22.70;99.90;;;;;;4969171;28;20058;-44
2023/08/23 07:11:54;;;;;;;5.05;3.15;;;23.00;99.90;;;;;;4966911;28;20035;-44
2023/08/23 07:14:19;;;;;;;4.05;2.95;;;23.20;99.90;;;;;;4970823;28;20027;-47
2023/08/23 07:16:45;;;;;;;6.85;3.08;;;23.40;99.90;;;;;;4968335;28;20035;-46
2023/08/23 07:19:12;;;;;;;6.65;2.47;;;23.60;99.90;;;;;;4966496;28;20027;-48
2023/08/23 07:21:37;;;;;;;3.85;2.50;;;23.80;99.90;;;;;;4966803;28;20062;-44
2023/08/23 07:24:04;;;;;;;5.38;2.90;;;24.00;99.90;;;;;;4969829;28;20093;-44
2023/08/23 07:26:29;;;;;;;7.10;2.47;;;24.10;99.90;;;;;;4968470;28;20093;-45
2023/08/23 07:28:55;;;;;;;5.18;2.80;;;24.10;99.90;;;;;;4971251;28;20035;-50
2023/08/23 07:31:21;;;;;;;10.32;3.13;;;24.10;99.90;;;;;;4964191;28;20122;-54
2023/08/23 07:33:47;;;;;;;6.20;2.97;;;24.00;99.90;;;;;;4963125;28;20498;-52
2023/08/23 07:36:14;;;;;;;7.07;2.67;;;23.80;99.90;;;;;;4970309;28;20066;-56
2023/08/23 07:38:39;;;;;;;8.65;3.15;;;23.70;99.90;;;;;;4979993;28;20537;-53
2023/08/23 07:41:05;;;;;;;7.55;2.63;;;23.50;99.90;;;;;;4965880;28;20046;-57
2023/08/23 07:43:32;;;;;;;6.95;3.05;;;23.50;99.90;;;;;;4966601;28;20038;-53
2023/08/23 07:46:00;;;;;;;2.88;2.15;;;23.40;99.90;;;;;;4968508;28;20462;-56
2023/08/23 07:48:27;;;;;;;9.32;3.33;;;23.50;99.90;;;;;;4966980;28;20133;-54
2023/08/23 07:51:01;;;;;;;3.80;2.47;;;23.40;99.90;;;;;;4968959;28;20034;-49
2023/08/23 07:53:28;;;;;;;8.57;2.28;;;23.60;99.90;;;;;;4967018;28;20037;-49
2023/08/23 07:55:54;;;;;;;7.18;2.53;;;23.60;99.90;;;;;;4969433;28;20312;-51
2023/08/23 07:58:20;;;;;;;5.03;2.30;;;23.80;99.90;;;;;;4967362;28;20035;-53
2023/08/23 08:00:46;;;;;;;6.93;3.10;;;23.90;99.90;;;;;;4970868;28;20125;-53
2023/08/23 08:03:11;;;;;;;4.20;2.25;;;24.00;99.90;;;;;;4972678;28;20046;-62
2023/08/23 08:05:38;;;;;;;4.53;2.92;;;24.00;99.90;;;;;;4972971;28;20066;-63
2023/08/23 08:08:05;;;;;;;4.97;2.92;;;24.10;99.90;;;;;;4971256;28;20037;-63
2023/08/23 08:10:32;;;;;;;4.38;2.60;;;24.20;99.90;;;;;;4987589;28;20117;-63
2023/08/23 08:13:00;;;;;;;3.22;2.30;;;24.10;99.90;;;;;;4965051;28;20423;-63
2023/08/23 08:15:27;;;;;;;5.20;2.42;;;24.10;99.90;;;;;;4972895;28;20053;-63
2023/08/23 08:17:53;;;;;;;4.18;2.17;;;24.20;99.90;;;;;;4970407;28;20031;-63
2023/08/23 08:20:24;;;;;;;5.03;2.42;;;24.20;99.90;;;;;;4989453;23;20050;-67
2023/08/23 08:22:50;;;;;;;4.90;2.15;;;24.40;99.90;;;;;;4992943;28;20581;-67
2023/08/23 08:25:16;;;;;;;4.35;2.60;;;24.50;99.90;;;;;;4992193;28;20030;-67
2023/08/23 08:27:42;;;;;;;5.50;2.55;;;24.60;99.90;;;;;;4986435;28;20051;-67
2023/08/23 08:30:08;;;;;;;2.90;2.13;;;24.60;99.90;;;;;;4980133;28;20147;-67
2023/08/23 08:32:34;;;;;;;3.22;1.92;;;24.80;99.90;;;;;;4992119;28;20058;-67
2023/08/23 08:35:04;;;;;;;4.18;2.58;;;24.80;99.90;;;;;;4986690;28;20062;-67
2023/08/23 08:37:30;;;;;;;4.90;2.55;;;24.90;99.90;;;;;;4991922;28;20398;-68
2023/08/23 08:39:55;;;;;;;7.38;1.98;;;25.00;99.90;;;;;;4990818;28;20058;-68
2023/08/23 08:42:21;;;;;;;3.83;2.22;;;25.00;99.90;;;;;;5008257;28;20495;-68
2023/08/23 08:44:48;;;;;;;7.10;2.38;;;25.20;99.90;;;;;;4991914;28;20030;-67
2023/08/23 08:47:14;;;;;;;2.70;1.73;;;25.20;99.90;;;;;;4992873;28;20026;-68
2023/08/23 08:49:39;;;;;;;3.05;1.65;;;25.30;99.90;;;;;;4986434;28;20479;-66
2023/08/23 08:52:07;;;;;;;2.97;1.90;;;25.50;99.90;;;;;;5002254;28;20047;-67
2023/08/23 08:54:34;;;;;;;4.70;2.03;;;25.60;99.90;;;;;;4992853;28;20061;-57
2023/08/23 08:57:02;;;;;;;3.45;2.05;;;25.70;99.90;;;;;;4991826;28;20034;-55
2023/08/23 08:59:29;;;;;;;3.13;1.77;;;25.80;99.90;;;;;;4993044;28;20117;-56
2023/08/23 09:01:56;;;;;;;4.97;1.80;;;25.80;99.90;;;;;;4978866;28;20033;-56
2023/08/23 09:04:22;;;;;;;2.53;1.65;;;26.00;99.90;;;;;;4995660;28;20117;-56
2023/08/23 09:06:49;;;;;;;4.22;1.95;;;26.10;99.90;;;;;;4990533;28;20565;-53
2023/08/23 09:09:15;;;;;;;2.67;1.55;;;26.20;99.90;;;;;;4992321;28;20037;-55
2023/08/23 09:11:41;;;;;;;2.60;1.60;;;26.30;99.90;;;;;;4990387;28;20491;-55
2023/08/23 09:14:20;;;;;;;3.15;1.58;;;26.30;99.90;;;;;;4991750;28;20030;-49
2023/08/23 09:16:47;;;;;;;6.43;2.13;;;26.40;99.90;;;;;;4974833;28;20042;-56
2023/08/23 09:19:14;;;;;;;4.75;1.63;;;26.50;99.90;;;;;;4990043;28;20030;-52
2023/08/23 09:21:49;;;;;;;3.25;1.67;;;26.40;99.90;;;;;;4990291;28;20534;-53
2023/08/23 09:24:16;;;;;;;5.40;1.70;;;26.60;99.90;;;;;;4992014;28;20030;-55
2023/08/23 09:26:44;;;;;;;3.08;1.55;;;26.60;99.90;;;;;;4991053;28;20390;-51
2023/08/23 09:29:11;;;;;;;4.00;2.30;;;26.80;99.90;;;;;;4991888;28;20558;-51
2023/08/23 09:31:36;;;;;;;2.75;1.60;;;26.70;99.90;;;;;;4990294;28;20080;-52
2023/08/23 09:34:03;;;;;;;7.47;2.70;;;26.80;99.90;;;;;;4997247;28;20422;-54
2023/08/23 09:36:41;;;;;;;2.83;1.80;;;26.80;99.90;;;;;;4987438;28;20101;-53
2023/08/23 09:39:11;;;;;;;3.75;1.52;;;27.10;99.90;;;;;;4990926;28;20088;-53
2023/08/23 09:41:42;;;;;;;3.65;1.42;;;27.00;99.90;;;;;;4990303;28;20077;-50
2023/08/23 09:44:09;;;;;;;3.08;1.90;;;27.20;99.90;;;;;;4990675;28;20022;-50
2023/08/23 09:46:36;;;;;;;3.38;1.80;;;27.30;99.90;;;;;;4990096;28;20043;-48
2023/08/23 09:49:07;;;;;;;3.00;1.70;;;27.30;99.90;;;;;;4992048;28;20026;-56
2023/08/23 09:51:37;;;;;;;5.80;1.63;;;27.50;99.90;;;;;;4991288;28;20509;-54
2023/08/23 09:54:53;;;;;;;3.28;1.60;;;27.60;99.90;;;;;;4991648;28;20041;-54
2023/08/23 09:57:21;;;;;;;4.82;2.05;;;27.50;99.90;;;;;;4990465;28;20038;-51
2023/08/23 09:59:47;;;;;;;5.13;1.42;;;27.80;99.90;;;;;;4974022;28;20108;-56
2023/08/23 10:02:17;;;;;;;3.65;1.70;;;28.00;99.90;;;;;;4990089;28;20134;-55
2023/08/23 10:04:44;;;;;;;1.80;1.37;;;27.80;99.90;;;;;;4989373;28;20027;-57
2023/08/23 10:07:15;;;;;;;16.70;4.03;;;28.00;99.90;;;;;;4982021;28;20033;-50
2023/08/23 10:09:41;;;;;;;4.00;1.90;;;28.20;99.90;;;;;;4978591;28;20042;-56
2023/08/23 10:12:12;;;;;;;7.82;4.05;;;28.20;98.80;;;;;;5005774;28;20034;-54
2023/08/23 10:14:43;;;;;;;5.03;1.73;;;28.40;99.90;;;;;;4989636;28;20402;-57
2023/08/23 10:17:13;;;;;;;5.43;1.90;;;28.10;99.10;;;;;;4990004;28;20045;-54
2023/08/23 10:19:39;;;;;;;6.55;1.98;;;28.40;98.60;;;;;;4998920;28;20030;-66
2023/08/23 10:22:06;;;;;;;3.40;1.67;;;28.60;98.80;;;;;;4988980;28;20117;-65
2023/08/23 10:24:32;;;;;;;5.00;1.77;;;28.30;98.40;;;;;;4990321;28;20049;-67
2023/08/23 10:27:06;;;;;;;2.05;1.15;;;28.50;98.40;;;;;;4989467;28;20034;-64
2023/08/23 10:29:36;;;;;;;3.65;1.45;;;28.50;98.50;;;;;;4991380;28;20037;-65
2023/08/23 10:32:08;;;;;;;4.28;1.63;;;28.70;98.80;;;;;;4980749;28;20062;-65
2023/08/23 10:34:40;;;;;;;4.50;1.90;;;28.90;97.70;;;;;;4989766;28;20038;-66
2023/08/23 10:37:20;;;;;;;3.83;1.92;;;28.80;97.50;;;;;;4989868;28;20042;-64
2023/08/23 10:39:52;;;;;;;5.35;1.75;;;29.10;97.70;;;;;;4991117;28;20028;-66
2023/08/23 10:42:19;;;;;;;3.20;1.67;;;29.10;96.50;;;;;;4987446;28;20026;-67
2023/08/23 10:45:05;;;;;;;2.65;1.40;;;29.30;96.80;;;;;;4991209;28;20105;-66
2023/08/23 10:47:36;;;;;;;2.53;1.55;;;29.50;97.20;;;;;;4989238;28;20038;-67
2023/08/23 10:50:04;;;;;;;2.83;1.33;;;29.60;96.50;;;;;;4987863;28;20049;-68
2023/08/23 10:52:30;;;;;;;2.72;1.70;;;29.80;96.00;;;;;;4986026;28;20041;-69
2023/08/23 10:54:57;;;;;;;3.08;1.40;;;29.60;95.90;;;;;;4984590;28;20042;-69
2023/08/23 10:57:23;;;;;;;4.82;1.60;;;29.60;96.70;;;;;;4988173;28;20448;-70
2023/08/23 10:59:49;;;;;;;4.82;1.80;;;29.50;95.70;;;;;;4978889;28;20117;-70
2023/08/23 11:02:15;;;;;;;4.38;1.70;;;29.30;95.90;;;;;;4971368;28;20035;-69
2023/08/23 11:04:45;;;;;;;4.30;1.77;;;29.80;95.60;;;;;;4967981;28;20121;-69
2023/08/23 11:07:11;;;;;;;6.60;2.33;;;30.40;95.30;;;;;;4972955;28;20070;-70
2023/08/23 11:09:37;;;;;;;4.57;1.80;;;30.50;94.50;;;;;;4969830;28;20098;-70
2023/08/23 11:12:06;;;;;;;3.83;1.90;;;30.40;94.40;;;;;;4968015;28;20038;-69
2023/08/23 11:14:32;;;;;;;2.60;1.58;;;30.40;94.60;;;;;;4967162;28;20501;-70
2023/08/23 11:16:58;;;;;;;2.83;1.40;;;30.60;94.40;;;;;;4967756;28;20041;-71
2023/08/23 11:19:24;;;;;;;6.43;2.38;;;29.90;94.60;;;;;;4967695;28;20096;-70
2023/08/23 11:21:49;;;;;;;5.28;1.88;;;30.00;94.80;;;;;;4977559;28;20031;-69
2023/08/23 11:24:15;;;;;;;1.95;1.30;;;30.70;94.50;;;;;;4979167;28;20038;-69
2023/08/23 11:26:41;;;;;;;6.80;1.52;;;30.50;93.70;;;;;;4970443;28;20770;-69
2023/08/23 11:29:07;;;;;;;4.63;1.50;;;30.90;93.80;;;;;;4978757;28;20042;-70
2023/08/23 11:31:35;;;;;;;3.47;1.75;;;30.20;93.60;;;;;;4973241;28;20041;-69
2023/08/23 11:34:07;;;;;;;2.53;1.40;;;30.50;94.50;;;;;;4973078;28;20134;-70
2023/08/23 11:36:34;;;;;;;5.97;1.70;;;31.20;92.80;;;;;;4986263;28;20042;-69
2023/08/23 11:39:06;;;;;;;5.15;1.90;;;31.40;92.70;;;;;;4991840;28;20079;-70
2023/08/23 11:41:34;;;;;;;5.35;1.58;;;31.60;91.60;;;;;;4988368;28;20037;-69
2023/08/23 11:44:07;;;;;;;3.17;1.30;;;31.70;91.70;;;;;;4992661;28;20042;-70
2023/08/23 11:46:38;;;;;;;3.92;1.70;;;31.40;91.40;;;;;;4992154;28;20030;-70
2023/08/23 11:49:09;;;;;;;3.30;1.45;;;31.70;91.50;;;;;;4987813;28;20022;-70
2023/08/23 11:51:44;;;;;;;3.45;2.05;;;31.60;91.20;;;;;;4988240;28;20034;-70
2023/08/23 11:54:11;;;;;;;2.72;1.50;;;31.60;91.20;;;;;;4992438;28;20462;-70
2023/08/23 11:56:44;;;;;;;3.42;1.10;;;31.70;91.30;;;;;;4992273;28;20041;-70
2023/08/23 11:59:13;;;;;;;6.10;1.58;;;32.10;90.60;;;;;;4993896;28;20030;-70
2023/08/23 12:01:43;;;;;;;2.97;1.52;;;32.30;90.10;;;;;;4989561;28;20030;-70
2023/08/23 12:04:11;;;;;;;2.17;1.50;;;32.30;90.60;;;;;;4992546;28;20031;-70
2023/08/23 12:06:37;;;;;;;3.78;1.38;;;32.60;90.10;;;;;;4991572;28;20120;-70
2023/08/23 12:09:04;;;;;;;6.13;1.55;;;32.00;88.20;;;;;;4993555;28;20395;-70
2023/08/23 12:11:32;;;;;;;2.20;1.20;;;32.10;89.20;;;;;;4987839;28;20477;-70
2023/08/23 12:14:00;;;;;;;3.67;1.67;;;31.90;89.20;;;;;;4990901;28;20027;-70
2023/08/23 12:16:27;;;;;;;2.83;1.35;;;32.50;88.30;;;;;;4990445;28;20027;-70
2023/08/23 12:18:52;;;;;;;3.95;1.17;;;32.00;89.20;;;;;;4998000;28;20041;-70
2023/08/23 12:21:18;;;;;;;2.80;1.27;;;32.50;88.10;;;;;;5002144;28;20026;-70
2023/08/23 12:23:45;;;;;;;3.50;1.35;;;32.30;86.00;;;;;;4987883;28;20038;-70
2023/08/23 12:26:11;;;;;;;3.58;1.50;;;32.10;86.90;;;;;;4991804;28;20490;-70
2023/08/23 12:28:37;;;;;;;4.72;1.10;;;32.30;86.40;;;;;;4993747;28;20104;-70
2023/08/23 12:31:03;;;;;;;2.75;1.30;;;32.80;85.50;;;;;;4990237;28;20133;-71
2023/08/23 12:33:29;;;;;;;2.08;1.02;;;32.30;84.10;;;;;;4997400;28;20109;-71
2023/08/23 12:35:55;;;;;;;1.92;1.15;;;32.80;83.90;;;;;;4997115;28;20040;-70
2023/08/23 12:38:20;;;;;;;2.28;1.33;;;33.00;82.50;;;;;;4991431;28;20038;-71
2023/08/23 12:40:46;;;;;;;5.63;1.17;;;33.10;80.70;;;;;;4978151;28;20034;-71
2023/08/23 12:43:12;;;;;;;2.15;1.13;;;33.00;73.40;;;;;;4975699;28;20042;-70
2023/08/23 12:45:38;;;;;;;4.40;1.48;;;32.80;71.10;;;;;;4978228;28;20037;-70
2023/08/23 12:48:05;;;;;;;2.63;0.90;;;32.50;74.40;;;;;;4988815;28;20042;-70